Terminal Aerodrome Forecast
Issued by NWS

Home | Current Version | Previous Version | Text Only | Print | Product List | Glossary On
Versions: 1 2 3 4 5 6 7 8 9 10 11 12 13 14 15 16 17 18 19 20 21 22 23 24 25 26 27 28 29 30 31 32 33 34 35 36 37 38 39 40 41 42 43 44 45 46
107
FTAK31 PANC 251725
TAFAAQ
TAF
PAAQ 251725Z 2518/2618 35007KT P6SM VCFG SCT001
      TEMPO 2518/2521 1SM BR VV001
     FM252100 VRB04KT P6SM FEW002
     FM260900 VRB05KT 3SM -SN OVC025
     FM261100 VRB05KT 1SM -SN BR BKN015
     FM261500 VRB04KT 1/2SM SN FZFG VV008=

USA.gov is the U.S. government's official web portal to all federal, state and local government web resources and services.